Time;durP1;ratioP1;P1;durP2;ratioP2;P2;SDS_P1;SDS_P2;PMS_P1;PMS_P2;Temp;Humidity;BMP_temperature;BMP_pressure;BME280_temperature;BME280_humidity;BME280_pressure;Samples;Min_cycle;Max_cycle;Signal;HPM_P1;HPM_P2
2023/04/04 00:01:23;;;;;;;0.88;0.88;;;;;;;9.89;100.00;96352.09;4956946;28;20094;-77
2023/04/04 00:03:50;;;;;;;0.75;0.40;;;;;;;9.96;100.00;96357.81;4975683;28;20030;-77
2023/04/04 00:06:19;;;;;;;0.45;0.25;;;;;;;9.92;100.00;96349.19;4956759;28;20391;-75
2023/04/04 00:08:45;;;;;;;0.40;0.40;;;;;;;9.83;100.00;96341.91;4958995;28;20030;-76
2023/04/04 00:11:11;;;;;;;0.55;0.35;;;;;;;9.89;100.00;96351.25;4976085;28;20082;-75
2023/04/04 00:13:37;;;;;;;0.68;0.68;;;;;;;9.89;100.00;96343.22;4974096;28;20022;-76
2023/04/04 00:16:03;;;;;;;1.20;0.60;;;;;;;9.87;100.00;96347.84;4959747;28;20038;-76
2023/04/04 00:18:28;;;;;;;0.40;0.40;;;;;;;9.91;100.00;96342.13;4956452;28;20400;-78
2023/04/04 00:20:54;;;;;;;0.22;0.20;;;;;;;9.89;100.00;96336.06;4975635;28;20481;-76
2023/04/04 00:23:20;;;;;;;1.08;0.77;;;;;;;9.90;100.00;96335.13;4975721;28;20075;-76
2023/04/04 00:25:52;;;;;;;0.13;0.13;;;;;;;9.89;100.00;96346.75;4992797;28;20114;-76
2023/04/04 00:28:18;;;;;;;0.10;0.10;;;;;;;9.92;100.00;96334.97;4959617;28;20026;-76
2023/04/04 00:30:44;;;;;;;0.60;0.20;;;;;;;9.87;100.00;96338.03;4959043;28;20026;-76
2023/04/04 00:33:10;;;;;;;1.25;0.65;;;;;;;9.95;100.00;96337.41;4959158;28;20065;-75
2023/04/04 00:35:35;;;;;;;0.10;0.10;;;;;;;9.93;100.00;96334.03;4957343;28;20073;-75
2023/04/04 00:38:01;;;;;;;0.20;0.20;;;;;;;9.94;100.00;96319.66;4959126;28;20465;-75
2023/04/04 00:40:27;;;;;;;1.27;0.80;;;;;;;9.96;100.00;96329.28;4975955;28;20387;-77
2023/04/04 00:42:52;;;;;;;0.20;0.20;;;;;;;9.97;100.00;96330.97;4992542;28;20022;-77
2023/04/04 00:45:18;;;;;;;0.80;0.40;;;;;;;9.98;100.00;96326.47;4975172;28;20030;-75
2023/04/04 00:47:44;;;;;;;0.90;0.73;;;;;;;10.02;100.00;96326.13;4958804;28;20030;-75
2023/04/04 00:50:10;;;;;;;2.45;0.38;;;;;;;10.00;100.00;96309.34;4974632;28;20478;-75
2023/04/04 00:52:36;;;;;;;0.75;0.55;;;;;;;9.93;100.00;96304.63;4956363;28;20031;-75
2023/04/04 00:55:02;;;;;;;2.22;1.40;;;;;;;9.93;100.00;96302.81;4957877;28;20030;-77
2023/04/04 00:57:28;;;;;;;0.22;0.15;;;;;;;9.93;100.00;96305.50;4975657;28;20535;-75
2023/04/04 00:59:56;;;;;;;0.35;0.35;;;;;;;9.85;100.00;96299.03;4974822;28;20113;-75
2023/04/04 01:02:23;;;;;;;0.30;0.22;;;;;;;9.84;100.00;96292.88;4958796;28;20057;-76
2023/04/04 01:04:49;;;;;;;0.45;0.45;;;;;;;9.75;100.00;96285.59;4974239;28;20038;-75
2023/04/04 01:07:15;;;;;;;0.10;0.10;;;;;;;9.82;100.00;96290.31;4974772;28;20089;-76
2023/04/04 01:09:41;;;;;;;0.35;0.20;;;;;;;9.80;100.00;96283.41;4958819;28;20030;-76
2023/04/04 01:12:07;;;;;;;0.35;0.35;;;;;;;9.86;100.00;96300.75;4974796;28;20054;-75
2023/04/04 01:14:32;;;;;;;0.30;0.30;;;;;;;9.82;100.00;96294.78;4957020;28;20446;-76
2023/04/04 01:16:58;;;;;;;1.52;0.45;;;;;;;9.80;100.00;96302.09;4955515;28;20039;-75
2023/04/04 01:19:43;;;;;;;2.28;0.68;;;;;;;9.73;100.00;96308.88;4957299;28;20026;-76
2023/04/04 01:22:10;;;;;;;0.35;0.30;;;;;;;9.65;100.00;96297.94;4958795;28;20040;-76
2023/04/04 01:24:37;;;;;;;0.17;0.17;;;;;;;9.63;100.00;96300.72;4955226;28;20038;-77
2023/04/04 01:27:03;;;;;;;0.10;0.10;;;;;;;9.70;100.00;96296.63;4957105;28;20037;-76
2023/04/04 01:29:29;;;;;;;0.20;0.20;;;;;;;9.69;100.00;96294.09;4974833;28;20030;-76
2023/04/04 01:32:08;;;;;;;0.28;0.28;;;;;;;9.65;100.00;96297.94;4958538;28;20029;-76
2023/04/04 01:34:56;;;;;;;0.10;0.10;;;;;;;9.68;100.00;96297.72;4953135;28;20041;-76
2023/04/04 01:37:47;;;;;;;0.20;0.10;;;;;;;9.58;100.00;96302.06;4955879;28;20098;-76
2023/04/04 01:40:21;;;;;;;0.10;0.10;;;;;;;9.54;100.00;96292.59;4954891;28;20045;-76
2023/04/04 01:42:48;;;;;;;0.00;0.00;;;;;;;9.54;100.00;96301.44;4955130;28;20098;-76
2023/04/04 01:45:13;;;;;;;0.10;0.10;;;;;;;9.49;100.00;96292.09;4938800;28;20039;-76
2023/04/04 01:47:40;;;;;;;0.68;0.40;;;;;;;9.56;100.00;96294.19;4955481;28;20481;-76
2023/04/04 01:50:07;;;;;;;0.25;0.25;;;;;;;9.58;100.00;96296.72;4954581;28;20347;-76
2023/04/04 01:52:33;;;;;;;0.00;0.00;;;;;;;9.55;100.00;96280.94;4939166;28;20039;-76
2023/04/04 01:54:59;;;;;;;0.10;0.10;;;;;;;9.53;100.00;96289.09;4938684;28;20501;-76
2023/04/04 01:57:25;;;;;;;0.20;0.20;;;;;;;9.45;100.00;96278.13;4954778;28;20521;-76
2023/04/04 02:00:09;;;;;;;0.10;0.10;;;;;;;9.42;100.00;96274.84;4938867;28;20027;-76
2023/04/04 02:02:35;;;;;;;0.03;0.03;;;;;;;9.43;100.00;96276.56;4966165;28;20576;-77
2023/04/04 02:05:01;;;;;;;0.30;0.30;;;;;;;9.33;100.00;96264.91;4938752;28;20180;-76
2023/04/04 02:07:27;;;;;;;0.68;0.68;;;;;;;9.40;100.00;96276.81;4938855;28;20125;-76
2023/04/04 02:09:52;;;;;;;1.20;0.25;;;;;;;9.37;100.00;96263.69;4939000;28;20465;-77
2023/04/04 02:12:18;;;;;;;0.10;0.10;;;;;;;9.37;100.00;96256.56;4938793;28;20035;-76
2023/04/04 02:14:44;;;;;;;0.22;0.13;;;;;;;9.44;100.00;96264.94;4972027;28;20162;-76
2023/04/04 02:17:09;;;;;;;0.55;0.40;;;;;;;9.32;100.00;96261.38;4938021;28;20053;-76
2023/04/04 02:19:35;;;;;;;0.10;0.10;;;;;;;9.36;100.00;96259.31;4954708;28;20487;-76
2023/04/04 02:22:00;;;;;;;0.20;0.20;;;;;;;9.39;100.00;96270.63;4939104;28;20031;-76
2023/04/04 02:24:26;;;;;;;1.70;1.55;;;;;;;9.42;100.00;96266.84;4938640;28;20070;-76
2023/04/04 02:26:51;;;;;;;1.55;1.30;;;;;;;9.43;100.00;96273.91;4954767;28;20402;-76
2023/04/04 02:29:18;;;;;;;0.55;0.55;;;;;;;9.47;100.00;96268.22;4954350;28;20027;-75
2023/04/04 02:31:43;;;;;;;0.52;0.52;;;;;;;9.37;100.00;96267.22;4938748;28;20027;-75
2023/04/04 02:34:09;;;;;;;0.17;0.17;;;;;;;9.38;100.00;96274.28;4954647;28;20114;-76
2023/04/04 02:36:34;;;;;;;0.10;0.10;;;;;;;9.28;100.00;96251.94;4963561;28;20120;-77
2023/04/04 02:39:01;;;;;;;0.30;0.30;;;;;;;9.31;100.00;96262.38;4953104;28;20085;-75
2023/04/04 02:41:26;;;;;;;0.60;0.60;;;;;;;9.25;100.00;96247.69;4972430;28;20088;-75
2023/04/04 02:43:52;;;;;;;0.10;0.10;;;;;;;9.32;100.00;96256.03;4957773;28;20027;-76
2023/04/04 02:46:17;;;;;;;0.45;0.32;;;;;;;9.39;100.00;96264.41;4954936;28;20486;-75
2023/04/04 02:48:43;;;;;;;0.25;0.25;;;;;;;9.43;100.00;96279.25;4957269;28;20018;-76
2023/04/04 02:51:09;;;;;;;0.00;0.00;;;;;;;9.45;100.00;96274.63;4974053;28;20439;-75
2023/04/04 02:53:35;;;;;;;0.13;0.13;;;;;;;9.44;100.00;96278.28;4973687;28;20050;-75
2023/04/04 02:56:04;;;;;;;0.60;0.55;;;;;;;9.51;100.00;96284.81;4957726;28;20026;-76
2023/04/04 02:58:32;;;;;;;0.85;0.40;;;;;;;9.49;100.00;96278.75;4955750;28;20036;-77
2023/04/04 03:00:58;;;;;;;0.28;0.28;;;;;;;9.44;100.00;96272.94;4969259;28;20034;-75
2023/04/04 03:03:24;;;;;;;0.50;0.38;;;;;;;9.47;100.00;96272.69;4955509;28;20049;-75
2023/04/04 03:05:50;;;;;;;0.73;0.40;;;;;;;9.50;100.00;96272.47;4956645;28;20089;-76
2023/04/04 03:08:16;;;;;;;0.55;0.35;;;;;;;9.48;100.00;96269.03;4956026;28;20021;-76
2023/04/04 03:10:41;;;;;;;0.85;0.57;;;;;;;9.49;100.00;96270.75;4956010;28;20041;-75
2023/04/04 03:13:07;;;;;;;0.20;0.20;;;;;;;9.50;100.00;96270.66;4960217;28;20505;-74
2023/04/04 03:15:33;;;;;;;0.40;0.40;;;;;;;9.51;100.00;96275.00;4959456;28;20078;-76
2023/04/04 03:17:59;;;;;;;0.88;0.52;;;;;;;9.57;100.00;96281.66;4976491;28;20598;-75
2023/04/04 03:20:25;;;;;;;0.20;0.20;;;;;;;9.55;100.00;96275.59;4974614;28;20072;-78
2023/04/04 03:22:51;;;;;;;0.82;0.52;;;;;;;9.59;100.00;96285.09;4961165;28;20039;-80
2023/04/04 03:25:17;;;;;;;0.45;0.43;;;;;;;9.57;100.00;96281.66;4977349;28;20034;-77
2023/04/04 03:27:42;;;;;;;0.20;0.20;;;;;;;9.55;100.00;96275.59;4976317;28;20026;-77
2023/04/04 03:30:08;;;;;;;0.80;0.73;;;;;;;9.63;100.00;96278.50;4976733;28;20109;-78
2023/04/04 03:32:38;;;;;;;0.47;0.47;;;;;;;9.65;100.00;96276.59;4976700;28;20034;-77
2023/04/04 03:35:05;;;;;;;0.77;0.77;;;;;;;9.69;100.00;96276.22;4959798;28;20045;-79
2023/04/04 03:37:31;;;;;;;0.73;0.68;;;;;;;9.71;100.00;96262.75;4960106;28;20817;-77
2023/04/04 03:39:57;;;;;;;0.10;0.10;;;;;;;9.67;100.00;96262.16;4976541;28;20031;-77
2023/04/04 03:42:22;;;;;;;0.47;0.47;;;;;;;9.63;100.00;96258.00;4976311;28;20109;-77
2023/04/04 03:44:48;;;;;;;0.15;0.15;;;;;;;9.57;100.00;96247.81;4976276;28;20522;-76
2023/04/04 03:47:13;;;;;;;0.10;0.10;;;;;;;9.55;100.00;96247.09;4976615;28;20105;-77
2023/04/04 03:49:39;;;;;;;0.10;0.10;;;;;;;9.62;100.00;96258.16;4976387;28;20038;-77
2023/04/04 03:52:04;;;;;;;0.40;0.30;;;;;;;9.58;100.00;96254.00;4976935;28;20030;-84
2023/04/04 03:54:30;;;;;;;0.32;0.32;;;;;;;9.57;100.00;96258.50;4960640;28;20081;-84
2023/04/04 03:56:56;;;;;;;1.48;0.35;;;;;;;9.54;100.00;96252.53;4993252;28;20101;-81
2023/04/04 03:59:22;;;;;;;1.13;0.77;;;;;;;9.48;100.00;96242.34;4958722;28;20462;-82
2023/04/04 04:01:48;;;;;;;0.20;0.20;;;;;;;9.54;100.00;96256.06;4990080;28;20117;-84
2023/04/04 04:04:13;;;;;;;0.45;0.20;;;;;;;9.57;100.00;96253.16;4959836;28;20109;-79
2023/04/04 04:06:40;;;;;;;0.28;0.28;;;;;;;9.58;100.00;96251.34;4960269;28;20531;-79
2023/04/04 04:09:06;;;;;;;0.10;0.10;;;;;;;9.59;100.00;96253.06;4977103;28;20490;-80
2023/04/04 04:11:33;;;;;;;0.45;0.45;;;;;;;9.54;100.00;96252.53;4957250;28;20027;-83
2023/04/04 04:13:59;;;;;;;0.88;0.40;;;;;;;9.58;100.00;96244.19;4958408;28;20030;-80
2023/04/04 04:16:26;;;;;;;0.93;0.93;;;;;;;9.48;100.00;96245.03;4976474;28;20022;-82
2023/04/04 04:18:52;;;;;;;0.28;0.28;;;;;;;9.56;100.00;96253.28;4959889;28;20030;-81
2023/04/04 04:21:17;;;;;;;0.25;0.20;;;;;;;9.55;100.00;96262.25;4976083;28;20445;-83
2023/04/04 04:23:43;;;;;;;1.23;0.60;;;;;;;9.57;100.00;96262.97;4960288;28;20038;-83
2023/04/04 04:26:08;;;;;;;0.57;0.57;;;;;;;9.62;100.00;96272.34;4976159;28;20050;-82
2023/04/04 04:28:34;;;;;;;0.30;0.30;;;;;;;9.59;100.00;96267.25;4976034;28;20037;-83
2023/04/04 04:31:06;;;;;;;0.17;0.17;;;;;;;9.54;100.00;96265.88;4957880;28;20041;-82
2023/04/04 04:33:32;;;;;;;0.45;0.45;;;;;;;9.59;100.00;96283.28;4956530;28;20018;-82
2023/04/04 04:36:00;;;;;;;0.30;0.30;;;;;;;9.56;100.00;96277.31;4990914;28;20057;-81
2023/04/04 04:38:26;;;;;;;0.15;0.15;;;;;;;9.57;100.00;96282.53;4959411;28;20050;-82
2023/04/04 04:40:51;;;;;;;0.40;0.40;;;;;;;9.63;100.00;96289.19;4959098;28;20026;-81
2023/04/04 04:43:17;;;;;;;0.52;0.50;;;;;;;9.56;100.00;96280.84;4959181;28;20030;-83
2023/04/04 04:45:43;;;;;;;0.85;0.43;;;;;;;9.55;100.00;96276.47;4975693;28;20161;-82
2023/04/04 04:48:08;;;;;;;1.65;1.38;;;;;;;9.49;100.00;96276.94;4975290;28;20015;-81
2023/04/04 04:50:34;;;;;;;1.60;1.08;;;;;;;9.54;100.00;96292.59;4959123;28;20026;-82
2023/04/04 04:53:00;;;;;;;1.40;1.25;;;;;;;9.58;100.00;96291.38;4970363;28;20398;-82
2023/04/04 04:55:26;;;;;;;4.43;0.55;;;;;;;9.59;100.00;96296.63;4959067;28;20112;-81
2023/04/04 04:57:52;;;;;;;0.25;0.25;;;;;;;9.53;100.00;96294.44;4992597;28;20364;-81
2023/04/04 05:00:18;;;;;;;0.60;0.60;;;;;;;9.50;100.00;96307.16;4958623;28;20125;-82
2023/04/04 05:02:43;;;;;;;1.08;0.68;;;;;;;9.54;100.00;96322.81;4975217;28;20036;-81
2023/04/04 05:05:09;;;;;;;1.58;1.00;;;;;;;9.53;100.00;96315.78;4958809;28;20026;-82
2023/04/04 05:07:35;;;;;;;3.10;1.15;;;;;;;9.64;100.00;96315.78;4956086;28;20027;-82
2023/04/04 05:10:01;;;;;;;2.45;2.08;;;;;;;9.73;100.00;96325.75;4973094;28;20022;-82
2023/04/04 05:12:26;;;;;;;0.63;0.60;;;;;;;9.62;100.00;96319.56;4959066;28;20070;-82
2023/04/04 05:14:52;;;;;;;2.28;2.10;;;;;;;9.73;100.00;96324.88;4959046;28;20030;-81
2023/04/04 05:17:18;;;;;;;2.13;1.38;;;;;;;9.72;100.00;96325.88;4958961;28;20557;-82
2023/04/04 05:19:43;;;;;;;5.68;2.42;;;;;;;9.79;100.00;96329.75;4975496;28;20129;-82
2023/04/04 05:22:09;;;;;;;1.70;1.25;;;;;;;9.86;100.00;96330.97;4955261;28;20045;-81
2023/04/04 05:24:34;;;;;;;2.13;1.25;;;;;;;9.88;100.00;96325.50;4959221;28;20026;-82
2023/04/04 05:27:00;;;;;;;2.38;1.05;;;;;;;9.81;100.00;96314.47;4974657;28;20497;-83
2023/04/04 05:29:26;;;;;;;0.15;0.15;;;;;;;9.75;100.00;96328.31;4975466;28;20022;-81
2023/04/04 05:31:51;;;;;;;0.95;0.90;;;;;;;9.69;100.00;96326.13;4955675;28;20505;-83
2023/04/04 05:34:17;;;;;;;9.73;4.22;;;;;;;9.64;100.00;96317.59;4957985;28;20104;-82
2023/04/04 05:36:42;;;;;;;11.30;5.70;;;;;;;9.43;100.00;96322.78;4958368;28;20466;-82
2023/04/04 05:39:08;;;;;;;1.67;1.38;;;;;;;9.47;100.00;96336.75;4974565;28;20030;-81
2023/04/04 05:41:33;;;;;;;3.13;2.05;;;;;;;9.53;100.00;96346.97;4974095;28;20077;-83
2023/04/04 05:43:59;;;;;;;4.93;1.45;;;;;;;9.57;100.00;96349.25;4958377;28;20092;-82
2023/04/04 05:46:25;;;;;;;1.85;1.45;;;;;;;9.41;100.00;96342.56;4974540;28;20117;-83
2023/04/04 05:48:50;;;;;;;0.52;0.52;;;;;;;9.27;100.00;96330.25;4955154;28;20022;-81
2023/04/04 05:51:16;;;;;;;1.42;1.33;;;;;;;9.00;100.00;96332.34;4974431;28;20486;-82
2023/04/04 05:53:46;;;;;;;0.80;0.65;;;;;;;8.81;100.00;96322.22;4974374;28;20057;-83
2023/04/04 05:56:12;;;;;;;1.52;1.17;;;;;;;8.70;100.00;96325.66;4974582;28;20030;-81
2023/04/04 05:58:37;;;;;;;0.90;0.85;;;;;;;8.56;100.00;96325.84;4972974;28;20018;-81
2023/04/04 06:01:07;;;;;;;2.15;1.58;;;;;;;8.36;100.00;96329.13;4974549;28;20064;-83
2023/04/04 06:03:33;;;;;;;0.30;0.30;;;;;;;8.38;100.00;96342.31;4957827;28;20040;-82
2023/04/04 06:06:00;;;;;;;0.82;0.82;;;;;;;8.25;100.00;96344.13;4947426;28;20027;-82
2023/04/04 06:08:25;;;;;;;0.47;0.47;;;;;;;8.27;100.00;96353.75;4948279;28;20029;-81
2023/04/04 06:10:51;;;;;;;14.82;3.67;;;;;;;8.19;100.00;96366.72;4967054;28;20027;-83
2023/04/04 06:13:16;;;;;;;1.75;0.85;;;;;;;8.15;100.00;96367.94;4974449;28;20030;-82
2023/04/04 06:15:42;;;;;;;4.00;2.78;;;;;;;8.29;100.00;96372.28;4950701;28;20453;-81
2023/04/04 06:18:08;;;;;;;7.13;2.00;;;;;;;8.15;100.00;96368.75;4974426;28;20030;-81
2023/04/04 06:20:33;;;;;;;0.73;0.73;;;;;;;8.08;100.00;96367.53;4967159;28;20042;-82
2023/04/04 06:23:02;;;;;;;1.58;1.17;;;;;;;8.02;100.00;96362.63;4958095;28;20402;-83
2023/04/04 06:25:28;;;;;;;0.85;0.85;;;;;;;8.02;100.00;96365.28;4974385;28;20537;-81
2023/04/04 06:27:54;;;;;;;1.23;0.68;;;;;;;8.03;100.00;96371.44;4958110;28;20105;-83
2023/04/04 06:30:20;;;;;;;0.10;0.10;;;;;;;8.01;100.00;96373.38;4955126;28;20113;-83
2023/04/04 06:32:45;;;;;;;0.40;0.40;;;;;;;8.01;100.00;96374.22;4973548;28;20105;-84
2023/04/04 06:35:11;;;;;;;1.38;1.10;;;;;;;8.09;100.00;96382.50;4954577;28;20026;-84
2023/04/04 06:37:36;;;;;;;0.75;0.57;;;;;;;8.12;100.00;96387.63;4970241;28;20070;-82
2023/04/04 06:40:03;;;;;;;1.10;0.32;;;;;;;7.97;100.00;96372.72;4957715;28;20032;-83
2023/04/04 06:42:28;;;;;;;12.13;7.70;;;;;;;8.09;100.00;96377.19;4957128;28;20029;-83
2023/04/04 06:44:54;;;;;;;2.85;2.13;;;;;;;8.14;100.00;96391.03;4955341;28;20023;-82
2023/04/04 06:47:20;;;;;;;0.20;0.20;;;;;;;8.05;100.00;96383.72;4975871;28;20019;-82
2023/04/04 06:49:45;;;;;;;1.88;1.38;;;;;;;8.00;100.00;96383.16;4977423;28;20052;-82
2023/04/04 06:52:11;;;;;;;0.13;0.13;;;;;;;7.93;100.00;96379.25;4961034;28;20030;-83
2023/04/04 06:54:36;;;;;;;0.88;0.88;;;;;;;8.14;100.00;96391.03;4961187;28;20475;-82
2023/04/04 06:57:02;;;;;;;0.20;0.20;;;;;;;8.19;100.00;96390.69;4961147;28;20077;-84
2023/04/04 06:59:28;;;;;;;0.63;0.50;;;;;;;8.34;100.00;96402.09;4961407;28;20028;-82
2023/04/04 07:01:53;;;;;;;0.20;0.20;;;;;;;8.40;100.00;96407.84;4977429;28;20481;-83
2023/04/04 07:04:19;;;;;;;0.68;0.40;;;;;;;8.35;100.00;96403.81;4961171;28;20466;-83
2023/04/04 07:06:44;;;;;;;0.93;0.60;;;;;;;8.30;100.00;96396.16;4977522;28;20061;-82
2023/04/04 07:09:11;;;;;;;0.38;0.30;;;;;;;8.31;100.00;96397.00;4977100;28;20137;-83
2023/04/04 07:11:37;;;;;;;0.30;0.30;;;;;;;8.27;100.00;96398.16;4960960;28;20187;-83
2023/04/04 07:14:03;;;;;;;1.08;0.63;;;;;;;8.34;100.00;96408.28;4960896;28;20030;-82
2023/04/04 07:16:28;;;;;;;0.28;0.28;;;;;;;8.39;100.00;96411.50;4961252;28;20118;-82
2023/04/04 07:18:54;;;;;;;0.35;0.35;;;;;;;8.45;100.00;96416.38;4976725;28;20089;-84
2023/04/04 07:21:19;;;;;;;0.10;0.10;;;;;;;8.48;100.00;96415.31;4960730;28;20026;-82
2023/04/04 07:23:45;;;;;;;0.28;0.28;;;;;;;8.44;100.00;96409.34;4958693;28;20490;-83
2023/04/04 07:26:10;;;;;;;1.98;0.20;;;;;;;8.33;100.00;96409.28;4976779;28;20027;-82
2023/04/04 07:28:36;;;;;;;0.22;0.22;;;;;;;8.29;100.00;96420.25;4976749;28;20022;-80
2023/04/04 07:31:02;;;;;;;16.75;10.18;;;;;;;8.35;100.00;96428.66;4960668;28;20030;-81
2023/04/04 07:33:28;;;;;;;3.47;2.25;;;;;;;8.32;100.00;96418.22;4960469;28;20022;-83
2023/04/04 07:35:53;;;;;;;0.65;0.65;;;;;;;8.23;100.00;96421.50;4976493;28;20073;-82
2023/04/04 07:38:19;;;;;;;0.10;0.10;;;;;;;8.32;100.00;96420.88;4976436;28;20030;-82
2023/04/04 07:40:45;;;;;;;4.68;0.47;;;;;;;8.17;100.00;96409.47;4960414;28;20029;-81
2023/04/04 07:43:10;;;;;;;0.60;0.60;;;;;;;8.27;100.00;96416.81;4976394;28;20022;-83
2023/04/04 07:45:36;;;;;;;1.10;0.65;;;;;;;8.14;100.00;96407.03;4960674;28;20034;-83
2023/04/04 07:48:02;;;;;;;3.22;0.55;;;;;;;8.25;100.00;96413.38;4960133;28;20120;-82
2023/04/04 07:50:28;;;;;;;0.20;0.20;;;;;;;8.31;100.00;96408.50;4976687;28;20150;-82
2023/04/04 07:52:54;;;;;;;0.32;0.32;;;;;;;8.26;100.00;96409.78;4960321;28;20045;-82
2023/04/04 07:55:23;;;;;;;0.70;0.32;;;;;;;8.16;100.00;96402.44;4960449;28;20410;-83
2023/04/04 07:57:49;;;;;;;0.45;0.45;;;;;;;8.07;100.00;96403.09;4975645;28;20514;-82
2023/04/04 08:00:20;;;;;;;0.50;0.50;;;;;;;8.06;100.00;96401.38;4960448;28;20108;-82
2023/04/04 08:02:46;;;;;;;0.20;0.20;;;;;;;7.80;100.00;96399.69;4976982;28;20174;-83
2023/04/04 08:05:11;;;;;;;0.52;0.52;;;;;;;7.88;100.00;96410.66;4976456;28;20511;-82
2023/04/04 08:07:37;;;;;;;1.27;1.17;;;;;;;8.07;100.00;96427.03;4960292;28;20194;-83
2023/04/04 08:10:03;;;;;;;0.20;0.20;;;;;;;8.09;100.00;96424.28;4960016;28;20030;-83
2023/04/04 08:12:28;;;;;;;0.25;0.25;;;;;;;8.33;100.00;96433.25;4960480;28;20060;-82
2023/04/04 08:14:54;;;;;;;0.77;0.77;;;;;;;8.27;100.00;96427.47;4960181;28;20041;-83
2023/04/04 08:17:20;;;;;;;1.17;0.98;;;;;;;8.42;100.00;96432.59;4976726;28;20026;-83
2023/04/04 08:19:45;;;;;;;1.00;0.90;;;;;;;8.52;100.00;96435.44;4962404;28;20399;-83
2023/04/04 08:22:11;;;;;;;0.75;0.70;;;;;;;8.60;100.00;96433.06;4960330;28;20030;-83
2023/04/04 08:24:36;;;;;;;2.03;1.02;;;;;;;8.76;100.00;96435.50;4960585;28;20042;-82
2023/04/04 08:27:03;;;;;;;0.57;0.57;;;;;;;8.86;100.00;96437.34;4960161;28;20121;-83
2023/04/04 08:29:31;;;;;;;0.47;0.47;;;;;;;8.84;100.00;96431.28;4960285;28;20383;-83
2023/04/04 08:31:57;;;;;;;1.00;0.90;;;;;;;8.98;100.00;96423.13;4976466;28;20482;-83
2023/04/04 08:34:22;;;;;;;0.52;0.47;;;;;;;9.02;100.00;96429.09;4958287;28;20034;-82
2023/04/04 08:36:48;;;;;;;2.10;0.70;;;;;;;8.85;100.00;96410.81;4976319;28;20456;-81
2023/04/04 08:39:13;;;;;;;0.15;0.15;;;;;;;8.89;100.00;96405.13;4960046;28;20034;-81
2023/04/04 08:41:42;;;;;;;0.10;0.10;;;;;;;8.88;100.00;96397.25;4961321;28;20496;-82
2023/04/04 08:44:10;;;;;;;0.25;0.25;;;;;;;9.08;100.00;96408.16;4975606;28;20037;-81
2023/04/04 08:46:37;;;;;;;0.73;0.52;;;;;;;9.35;100.00;96418.56;4976221;28;20045;-82
2023/04/04 08:49:03;;;;;;;0.73;0.60;;;;;;;9.34;100.00;96414.22;4959541;28;20022;-82
2023/04/04 08:51:30;;;;;;;2.42;1.45;;;;;;;9.43;100.00;96402.00;4976086;28;20031;-82
2023/04/04 08:53:56;;;;;;;0.25;0.25;;;;;;;9.39;100.00;96395.19;4975765;28;20034;-82
2023/04/04 08:56:22;;;;;;;0.47;0.28;;;;;;;9.00;100.00;96373.22;4975427;28;20030;-83
2023/04/04 08:58:48;;;;;;;0.70;0.68;;;;;;;9.26;100.00;96396.09;4959258;28;20559;-82
2023/04/04 09:01:15;;;;;;;0.20;0.20;;;;;;;9.52;100.00;96398.63;4975356;28;20105;-82
2023/04/04 09:03:41;;;;;;;0.47;0.47;;;;;;;9.59;100.00;96415.88;4959435;28;20030;-81
2023/04/04 09:06:07;;;;;;;0.47;0.47;;;;;;;9.64;100.00;96403.88;4975834;28;20036;-81
2023/04/04 09:08:33;;;;;;;0.52;0.43;;;;;;;9.34;100.00;96392.88;4959349;28;20117;-80
2023/04/04 09:11:01;;;;;;;3.50;1.48;;;;;;;9.09;100.00;96385.88;4958463;28;20026;-80
2023/04/04 09:13:27;;;;;;;0.82;0.82;;;;;;;9.06;100.00;96388.75;4958544;28;20033;-81
2023/04/04 09:15:53;;;;;;;10.10;4.32;;;;;;;9.01;100.00;96395.41;4975535;28;20026;-82
2023/04/04 09:18:19;;;;;;;3.03;1.10;;;;;;;9.17;100.00;96406.63;4974579;28;20497;-81
2023/04/04 09:20:45;;;;;;;0.47;0.47;;;;;;;9.11;100.00;96391.91;4975383;28;20030;-83
2023/04/04 09:23:16;;;;;;;1.75;0.55;;;;;;;8.99;100.00;96399.97;4959664;28;20480;-79
2023/04/04 09:25:48;;;;;;;0.00;0.00;;;;;;;8.82;100.00;96393.25;4959682;28;20100;-81
2023/04/04 09:28:15;;;;;;;0.93;0.93;;;;;;;8.90;100.00;96398.00;4956236;28;20080;-80
2023/04/04 09:30:41;;;;;;;0.40;0.40;;;;;;;9.00;100.00;96402.53;4971980;28;20045;-81
2023/04/04 09:33:08;;;;;;;0.25;0.25;;;;;;;9.04;100.00;96408.50;4958767;28;20478;-80
2023/04/04 09:35:36;;;;;;;0.20;0.20;;;;;;;9.23;100.00;96406.16;4958053;28;20038;-81
2023/04/04 09:38:03;;;;;;;0.47;0.13;;;;;;;9.36;100.00;96416.75;4965274;28;20474;-80
2023/04/04 09:40:29;;;;;;;0.13;0.13;;;;;;;9.07;100.00;96403.81;4958149;28;20026;-80
2023/04/04 09:42:59;;;;;;;0.05;0.05;;;;;;;9.03;100.00;96418.31;4974930;28;20557;-81
2023/04/04 09:45:27;;;;;;;0.40;0.38;;;;;;;9.15;100.00;96422.75;4956255;28;20490;-81
2023/04/04 09:47:53;;;;;;;1.00;0.73;;;;;;;9.15;100.00;96411.22;4992075;28;20025;-82
2023/04/04 09:50:23;;;;;;;0.40;0.40;;;;;;;9.05;100.00;96397.72;4974119;28;20026;-80
2023/04/04 09:52:53;;;;;;;0.25;0.25;;;;;;;9.17;100.00;96417.28;4974472;28;20018;-81
2023/04/04 09:55:18;;;;;;;0.38;0.38;;;;;;;9.00;100.00;96407.88;4974433;28;20037;-82
2023/04/04 09:57:46;;;;;;;2.22;0.57;;;;;;;9.02;100.00;96421.09;4974286;28;20030;-80
2023/04/04 10:00:12;;;;;;;0.57;0.57;;;;;;;8.90;100.00;96414.84;4974444;28;20550;-79
2023/04/04 10:02:40;;;;;;;0.10;0.10;;;;;;;8.77;100.00;96419.38;4957534;28;20089;-81
2023/04/04 10:05:09;;;;;;;0.20;0.20;;;;;;;8.92;100.00;96420.09;4966556;28;20379;-81
2023/04/04 10:07:38;;;;;;;0.10;0.10;;;;;;;8.92;100.00;96415.56;4957583;28;20042;-81
2023/04/04 10:10:05;;;;;;;0.00;0.00;;;;;;;8.87;100.00;96411.56;4957942;28;20549;-82
2023/04/04 10:12:31;;;;;;;0.20;0.20;;;;;;;8.93;100.00;96406.63;4968396;28;20414;-80
2023/04/04 10:15:01;;;;;;;0.47;0.28;;;;;;;9.22;100.00;96429.34;4958185;28;20105;-81
2023/04/04 10:17:36;;;;;;;0.20;0.10;;;;;;;9.43;100.00;96420.69;4955127;28;20565;-81
2023/04/04 10:20:07;;;;;;;0.20;0.20;;;;;;;9.40;100.00;96410.22;4957637;28;20034;-81
2023/04/04 10:22:34;;;;;;;0.00;0.00;;;;;;;9.46;100.00;96417.78;4977836;28;20045;-81
2023/04/04 10:25:00;;;;;;;0.45;0.45;;;;;;;9.66;100.00;96427.78;4978499;28;20030;-82
2023/04/04 10:27:26;;;;;;;0.35;0.35;;;;;;;9.60;100.00;96428.25;4962058;28;20101;-81
2023/04/04 10:29:52;;;;;;;1.08;0.98;;;;;;;9.58;100.00;96420.38;4978336;28;20022;-81
2023/04/04 10:32:24;;;;;;;1.42;1.23;;;;;;;9.63;100.00;96430.69;4958905;28;20035;-82
2023/04/04 10:35:00;;;;;;;1.35;1.00;;;;;;;9.62;100.00;96431.66;4961771;28;20037;-81
2023/04/04 10:37:27;;;;;;;0.45;0.45;;;;;;;9.46;100.00;96441.78;4977309;28;20046;-81
2023/04/04 10:40:09;;;;;;;0.68;0.40;;;;;;;9.39;100.00;96437.88;4968112;28;20200;-81
2023/04/04 10:42:38;;;;;;;0.25;0.25;;;;;;;9.18;100.00;96449.19;4976661;28;20033;-81
2023/04/04 10:45:08;;;;;;;0.10;0.10;;;;;;;9.12;100.00;96440.78;4958817;28;20450;-81
2023/04/04 10:47:34;;;;;;;0.10;0.10;;;;;;;9.16;100.00;96447.63;4977755;28;20061;-81
2023/04/04 10:50:00;;;;;;;0.00;0.00;;;;;;;9.00;100.00;96444.38;4961957;28;20398;-83
2023/04/04 10:52:27;;;;;;;0.03;0.03;;;;;;;8.84;100.00;96447.28;4977993;28;20022;-83
2023/04/04 10:55:00;;;;;;;0.10;0.10;;;;;;;8.64;100.00;96447.91;4977948;28;20026;-82
2023/04/04 10:57:27;;;;;;;0.10;0.10;;;;;;;8.69;100.00;96465.25;4961800;28;20034;-82
2023/04/04 11:00:12;;;;;;;0.20;0.20;;;;;;;8.54;100.00;96457.50;4977486;28;20343;-79
2023/04/04 11:02:57;;;;;;;0.30;0.30;;;;;;;8.53;100.00;96459.31;4978564;28;20026;-82
2023/04/04 11:05:33;;;;;;;1.20;0.57;;;;;;;8.60;100.00;96459.72;4977674;28;20509;-83
2023/04/04 11:08:03;;;;;;;0.75;0.75;;;;;;;8.54;100.00;96461.03;4954989;28;20033;-82
2023/04/04 11:10:34;;;;;;;0.10;0.10;;;;;;;8.56;100.00;96460.91;4978634;28;20130;-82
2023/04/04 11:13:10;;;;;;;0.10;0.10;;;;;;;8.77;100.00;96482.53;4977834;28;20018;-82
2023/04/04 11:15:55;;;;;;;0.28;0.28;;;;;;;8.62;100.00;96471.13;4978424;28;20026;-80
2023/04/04 11:18:22;;;;;;;0.10;0.10;;;;;;;8.55;100.00;96470.69;4977771;28;20030;-81
2023/04/04 11:20:48;;;;;;;0.80;0.75;;;;;;;8.53;100.00;96461.13;4961045;28;20026;-81
2023/04/04 11:23:15;;;;;;;0.30;0.30;;;;;;;8.54;100.00;96471.69;4977651;28;20018;-83
2023/04/04 11:25:49;;;;;;;0.50;0.30;;;;;;;8.66;100.00;96472.63;4959380;28;20069;-82
2023/04/04 11:28:33;;;;;;;0.98;0.15;;;;;;;8.74;100.00;96470.25;4977595;28;20515;-82
2023/04/04 11:31:17;;;;;;;0.55;0.55;;;;;;;8.92;100.00;96487.56;4969897;28;20073;-83
2023/04/04 11:34:11;;;;;;;0.90;0.55;;;;;;;8.90;100.00;96464.66;4993519;28;20494;-82